createdAt,value
2022-12-20T00:01:48.582Z,19.67
2022-12-20T00:04:15.760Z,21.08
2022-12-20T00:06:42.762Z,20.17
2022-12-20T00:09:11.817Z,20.83
2022-12-20T00:11:41.231Z,19.02
2022-12-20T00:14:09.806Z,20.67
2022-12-20T00:16:37.549Z,21.00
2022-12-20T00:19:07.239Z,19.42
2022-12-20T00:21:35.362Z,21.50
2022-12-20T00:24:03.323Z,20.70
2022-12-20T00:26:33.052Z,19.67
2022-12-20T00:29:01.177Z,22.02
2022-12-20T00:31:29.655Z,20.52
2022-12-20T00:33:58.114Z,21.00
2022-12-20T00:36:27.888Z,20.95
2022-12-20T00:38:56.816Z,20.35
2022-12-20T00:41:26.687Z,21.00
2022-12-20T00:43:54.561Z,20.50
2022-12-20T00:46:24.878Z,18.45
2022-12-20T00:48:54.485Z,20.13
2022-12-20T00:51:25.014Z,19.95
2022-12-20T00:53:52.451Z,19.35
2022-12-20T00:56:19.545Z,20.30
2022-12-20T00:58:46.971Z,20.67
2022-12-20T01:01:26.697Z,20.25
2022-12-20T01:03:54.640Z,20.38
2022-12-20T01:06:23.060Z,20.75
2022-12-20T01:08:50.285Z,19.23
2022-12-20T01:11:23.272Z,22.85
2022-12-20T01:13:53.633Z,21.23
2022-12-20T01:16:24.846Z,21.35
2022-12-20T01:18:53.185Z,19.80
2022-12-20T01:21:21.360Z,18.48
2022-12-20T01:23:48.694Z,19.13
2022-12-20T01:26:18.395Z,20.60
2022-12-20T01:28:47.849Z,20.70
2022-12-20T01:31:18.089Z,20.02
2022-12-20T01:33:47.937Z,20.50
2022-12-20T01:36:17.900Z,18.65
2022-12-20T01:38:45.462Z,19.35
2022-12-20T01:41:17.814Z,18.65
2022-12-20T01:43:52.644Z,19.27
2022-12-20T01:46:22.477Z,19.15
2022-12-20T01:48:56.613Z,18.67
2022-12-20T01:51:24.595Z,19.60
2022-12-20T01:54:01.735Z,19.50
2022-12-20T01:56:28.577Z,19.75
2022-12-20T01:58:56.990Z,19.50
2022-12-20T02:01:25.286Z,19.35
2022-12-20T02:03:55.439Z,19.15
2022-12-20T02:06:25.829Z,19.48
2022-12-20T02:08:56.791Z,18.50
2022-12-20T02:11:42.944Z,20.15
2022-12-20T02:14:31.917Z,18.92
2022-12-20T02:17:23.136Z,18.75
2022-12-20T02:20:21.787Z,18.90
2022-12-20T02:23:43.011Z,18.10
2022-12-20T02:26:31.567Z,13.60
2022-12-20T02:29:23.784Z,16.95
2022-12-20T02:32:24.328Z,18.63
2022-12-20T02:34:52.564Z,18.15
2022-12-20T02:37:19.768Z,18.60
2022-12-20T02:39:47.257Z,17.38
2022-12-20T02:42:20.758Z,18.48
2022-12-20T02:45:11.883Z,18.98
2022-12-20T02:48:00.524Z,17.50
2022-12-20T02:50:38.307Z,18.35
2022-12-20T02:53:06.973Z,18.95
2022-12-20T02:55:57.319Z,18.02
2022-12-20T02:58:30.898Z,17.40
2022-12-20T03:01:04.525Z,18.60
2022-12-20T03:03:35.228Z,16.67
2022-12-20T03:06:02.416Z,18.17
2022-12-20T03:08:30.913Z,16.90
2022-12-20T03:10:58.017Z,18.35
2022-12-20T03:13:25.887Z,17.80
2022-12-20T03:16:00.678Z,17.23
2022-12-20T03:18:28.085Z,17.33
2022-12-20T03:20:54.901Z,17.02
2022-12-20T03:23:22.548Z,16.15
2022-12-20T03:25:49.637Z,16.90
2022-12-20T03:28:26.547Z,18.60
2022-12-20T03:30:54.076Z,16.58
2022-12-20T03:33:21.423Z,17.15
2022-12-20T03:35:48.400Z,16.23
2022-12-20T03:38:18.158Z,17.15
2022-12-20T03:40:45.253Z,16.58
2022-12-20T03:43:14.975Z,15.52
2022-12-20T03:45:42.256Z,18.33
2022-12-20T03:48:09.447Z,17.55
2022-12-20T03:50:37.358Z,16.35
2022-12-20T03:53:04.868Z,17.10
2022-12-20T03:55:33.296Z,17.40
2022-12-20T03:58:00.862Z,16.88
2022-12-20T04:00:31.914Z,16.65
2022-12-20T04:03:18.381Z,16.77
2022-12-20T04:05:45.477Z,18.52
2022-12-20T04:08:12.928Z,17.80
2022-12-20T04:11:00.405Z,17.23
2022-12-20T04:13:32.830Z,16.10
2022-12-20T04:16:00.922Z,15.98
2022-12-20T04:18:31.664Z,16.92
2022-12-20T04:21:01.746Z,16.75
2022-12-20T04:23:31.346Z,16.50
2022-12-20T04:25:58.866Z,16.75
2022-12-20T04:28:26.310Z,16.60
2022-12-20T04:30:54.699Z,17.58
2022-12-20T04:33:27.001Z,16.07
2022-12-20T04:35:55.121Z,16.30
2022-12-20T04:38:24.132Z,16.33
2022-12-20T04:40:54.878Z,17.52
2022-12-20T04:43:24.835Z,16.45
2022-12-20T04:45:58.955Z,17.10
2022-12-20T04:51:15.966Z,16.45
2022-12-20T04:53:48.293Z,15.00
2022-12-20T04:56:31.243Z,14.95
2022-12-20T04:59:05.282Z,15.13
2022-12-20T05:01:32.310Z,16.95
2022-12-20T05:04:00.008Z,18.73
2022-12-20T05:06:31.280Z,15.85
2022-12-20T05:08:58.650Z,16.42
2022-12-20T05:11:25.664Z,16.15
2022-12-20T05:13:52.815Z,15.73
2022-12-20T05:16:21.348Z,16.50
2022-12-20T05:18:49.655Z,16.83
2022-12-20T05:21:51.084Z,17.00
2022-12-20T05:24:37.133Z,16.67
2022-12-20T05:27:26.765Z,15.75
2022-12-20T05:29:53.950Z,17.25
2022-12-20T05:32:21.538Z,15.57
2022-12-20T05:34:49.109Z,16.55
2022-12-20T05:37:17.593Z,16.33
2022-12-20T05:39:45.719Z,15.90
2022-12-20T05:42:18.349Z,16.27
2022-12-20T05:44:45.735Z,16.33
2022-12-20T05:47:13.393Z,15.63
2022-12-20T05:49:40.975Z,16.23
2022-12-20T05:52:10.934Z,15.43
2022-12-20T05:54:40.136Z,14.82
2022-12-20T05:57:16.152Z,15.57
2022-12-20T05:59:43.998Z,14.60
2022-12-20T06:02:16.974Z,14.95
2022-12-20T06:04:45.745Z,15.80
2022-12-20T06:07:17.041Z,14.23
2022-12-20T06:09:47.501Z,14.05
2022-12-20T06:12:17.309Z,14.63
2022-12-20T06:14:46.353Z,15.07
2022-12-20T06:17:14.050Z,15.27
2022-12-20T06:19:44.203Z,14.73
2022-12-20T06:22:14.747Z,14.80
2022-12-20T06:24:48.511Z,14.40
2022-12-20T06:27:18.528Z,13.05
2022-12-20T06:29:54.280Z,13.85
2022-12-20T06:32:24.077Z,13.77
2022-12-20T06:34:51.956Z,14.88
2022-12-20T06:37:18.865Z,13.90
2022-12-20T06:39:46.132Z,13.93
2022-12-20T06:42:14.140Z,13.68
2022-12-20T06:44:43.619Z,13.68
2022-12-20T06:47:10.654Z,14.23
2022-12-20T06:49:38.332Z,14.10
2022-12-20T06:52:11.995Z,13.85
2022-12-20T06:54:45.509Z,14.52
2022-12-20T06:57:13.781Z,15.85
2022-12-20T06:59:42.671Z,14.10
2022-12-20T07:02:12.946Z,14.60
2022-12-20T07:04:40.354Z,13.45
2022-12-20T07:07:07.212Z,14.00
2022-12-20T07:09:34.875Z,15.23
2022-12-20T07:12:02.102Z,14.95
2022-12-20T07:14:29.354Z,14.23
2022-12-20T07:16:56.287Z,14.80
2022-12-20T07:19:23.776Z,13.55
2022-12-20T07:21:52.746Z,13.48
2022-12-20T07:24:20.215Z,15.75
2022-12-20T07:26:47.347Z,14.52
2022-12-20T07:29:15.974Z,13.77
2022-12-20T07:31:43.609Z,14.32
2022-12-20T07:34:11.404Z,13.38
2022-12-20T07:36:38.325Z,14.65
2022-12-20T07:39:05.736Z,14.15
2022-12-20T07:41:32.774Z,14.68
2022-12-20T07:44:00.034Z,14.52
2022-12-20T07:46:27.343Z,13.13
2022-12-20T07:48:56.113Z,14.07
2022-12-20T07:51:36.703Z,15.48
2022-12-20T07:54:11.127Z,13.45
2022-12-20T07:56:43.031Z,13.57
2022-12-20T07:59:12.972Z,13.80
2022-12-20T08:01:41.590Z,14.60
2022-12-20T08:04:15.630Z,13.75
2022-12-20T08:06:42.899Z,13.63
2022-12-20T08:09:13.421Z,14.13
2022-12-20T08:11:43.498Z,13.93
2022-12-20T08:14:11.441Z,14.98
2022-12-20T08:16:38.498Z,13.85
2022-12-20T08:19:05.688Z,13.35
2022-12-20T08:21:32.511Z,13.60
2022-12-20T08:23:59.876Z,13.15
2022-12-20T08:26:27.663Z,13.35
2022-12-20T08:28:55.462Z,14.02
2022-12-20T08:31:23.010Z,13.40
2022-12-20T08:33:50.335Z,13.93
2022-12-20T08:36:17.373Z,13.38
2022-12-20T08:38:44.602Z,13.63
2022-12-20T08:41:16.012Z,13.43
2022-12-20T08:43:44.045Z,13.40
2022-12-20T08:46:12.518Z,13.43
2022-12-20T08:48:40.457Z,14.65
2022-12-20T08:51:10.541Z,14.35
2022-12-20T08:53:38.855Z,13.23
2022-12-20T08:56:16.055Z,14.27
2022-12-20T08:58:44.582Z,14.93
2022-12-20T09:01:17.448Z,14.20
2022-12-20T09:03:45.882Z,14.55
2022-12-20T09:06:15.991Z,14.70
2022-12-20T09:08:43.625Z,14.05
2022-12-20T09:11:22.249Z,13.93
2022-12-20T09:13:52.180Z,14.90
2022-12-20T09:16:22.273Z,14.65
2022-12-20T09:18:51.656Z,14.32
2022-12-20T09:21:19.970Z,15.38
2022-12-20T09:23:48.450Z,14.63
2022-12-20T09:26:17.805Z,13.93
2022-12-20T09:28:45.851Z,14.65
2022-12-20T09:31:19.141Z,13.77
2022-12-20T09:33:47.035Z,15.63
2022-12-20T09:36:17.671Z,13.38
2022-12-20T09:38:46.961Z,16.27
2022-12-20T09:41:23.582Z,15.63
2022-12-20T09:43:51.934Z,15.02
2022-12-20T09:46:19.336Z,13.73
2022-12-20T09:48:47.437Z,13.70
2022-12-20T09:51:49.703Z,14.63
2022-12-20T09:55:06.643Z,14.48
2022-12-20T09:58:15.371Z,13.75
2022-12-20T10:00:53.222Z,14.30
2022-12-20T10:03:36.139Z,15.13
2022-12-20T10:06:15.701Z,15.15
2022-12-20T10:08:47.888Z,14.63
2022-12-20T10:11:51.377Z,15.43
2022-12-20T10:14:27.209Z,15.85
2022-12-20T10:17:02.050Z,15.35
2022-12-20T10:20:02.781Z,15.82
2022-12-20T10:22:38.476Z,15.90
2022-12-20T10:25:23.008Z,16.75
2022-12-20T10:27:57.035Z,15.95
2022-12-20T10:30:27.021Z,15.90
2022-12-20T10:32:56.839Z,15.73
2022-12-20T10:35:34.104Z,17.20
2022-12-20T10:38:12.843Z,16.52
2022-12-20T10:41:19.470Z,17.48
2022-12-20T10:43:56.635Z,16.88
2022-12-20T10:46:34.449Z,16.90
2022-12-20T10:49:23.293Z,16.73
2022-12-20T10:51:56.020Z,16.45
2022-12-20T10:54:29.426Z,18.98
2022-12-20T10:56:59.521Z,17.48
2022-12-20T10:59:35.320Z,16.33
2022-12-20T11:02:24.012Z,16.88
2022-12-20T11:05:21.276Z,18.00
2022-12-20T11:08:36.138Z,17.17
2022-12-20T11:11:22.876Z,16.92
2022-12-20T11:13:51.983Z,17.63
2022-12-20T11:16:33.785Z,17.75
2022-12-20T11:19:14.663Z,19.02
2022-12-20T11:22:08.152Z,17.27
2022-12-20T11:24:53.943Z,17.70
2022-12-20T11:27:59.440Z,17.38
2022-12-20T11:30:52.063Z,17.52
2022-12-20T11:33:38.075Z,18.33
2022-12-20T11:36:20.005Z,19.77
2022-12-20T11:39:16.041Z,18.73
2022-12-20T11:42:20.288Z,19.92
2022-12-20T11:45:13.859Z,19.33
2022-12-20T11:48:02.100Z,18.88
2022-12-20T11:50:35.522Z,17.90
2022-12-20T11:53:14.491Z,18.80
2022-12-20T11:55:45.983Z,17.42
2022-12-20T11:58:21.345Z,16.75
2022-12-20T12:00:58.318Z,18.25
2022-12-20T12:03:35.516Z,16.08
2022-12-20T12:06:07.604Z,17.15
2022-12-20T12:08:58.550Z,15.95
2022-12-20T12:12:05.749Z,17.42
2022-12-20T12:14:42.888Z,16.17
2022-12-20T12:17:18.408Z,17.77
2022-12-20T12:19:48.970Z,16.83
2022-12-20T12:22:24.166Z,17.90
2022-12-20T12:24:56.608Z,17.45
2022-12-20T12:27:26.636Z,17.38
2022-12-20T12:29:56.473Z,17.35
2022-12-20T12:32:33.744Z,23.27
2022-12-20T12:35:22.838Z,17.42
2022-12-20T12:37:54.995Z,17.85
2022-12-20T12:40:52.322Z,16.83
2022-12-20T12:43:39.241Z,18.90
2022-12-20T12:46:35.452Z,18.00
2022-12-20T12:49:17.721Z,17.70
2022-12-20T12:51:56.979Z,17.08
2022-12-20T12:54:41.395Z,19.80
2022-12-20T12:57:18.099Z,19.38
2022-12-20T12:59:51.694Z,19.08
2022-12-20T13:02:25.306Z,19.38
2022-12-20T13:05:01.428Z,18.58
2022-12-20T13:07:36.040Z,17.67
2022-12-20T13:10:18.641Z,17.75
2022-12-20T13:12:52.161Z,18.73
2022-12-20T13:15:20.166Z,18.98
2022-12-20T13:17:50.790Z,17.52
2022-12-20T13:20:26.235Z,18.23
2022-12-20T13:23:08.518Z,18.23
2022-12-20T13:26:03.357Z,18.27
2022-12-20T13:28:30.891Z,18.58
2022-12-20T13:31:01.638Z,18.30
2022-12-20T13:33:43.123Z,18.95
2022-12-20T13:38:46.215Z,18.02
2022-12-20T13:41:39.232Z,19.25
2022-12-20T13:44:16.990Z,19.48
2022-12-20T13:47:10.157Z,19.60
2022-12-20T13:49:42.422Z,19.33
2022-12-20T13:52:27.452Z,19.05
2022-12-20T13:54:59.601Z,18.90
2022-12-20T13:57:44.972Z,19.65
2022-12-20T14:00:18.372Z,19.50
2022-12-20T14:02:47.451Z,20.27
2022-12-20T14:05:20.676Z,18.55
2022-12-20T14:07:55.890Z,19.48
2022-12-20T14:10:26.626Z,20.20
2022-12-20T14:12:54.971Z,18.50
2022-12-20T14:15:28.059Z,21.50
2022-12-20T14:17:55.853Z,18.88
2022-12-20T14:20:31.281Z,20.50
2022-12-20T14:23:12.335Z,18.58
2022-12-20T14:25:47.536Z,21.40
2022-12-20T14:28:41.047Z,20.05
2022-12-20T14:31:22.677Z,19.38
2022-12-20T14:33:51.685Z,18.88
2022-12-20T14:36:21.191Z,26.73
2022-12-20T14:38:51.546Z,21.08
2022-12-20T14:41:41.145Z,56.08
2022-12-20T14:44:08.340Z,23.45
2022-12-20T14:46:36.043Z,19.33
2022-12-20T14:49:12.768Z,18.60
2022-12-20T14:51:39.984Z,19.00
2022-12-20T14:54:26.079Z,18.90
2022-12-20T14:56:59.651Z,19.50
2022-12-20T14:59:29.560Z,19.52
2022-12-20T15:01:56.831Z,19.73
2022-12-20T15:04:33.868Z,19.30
2022-12-20T15:07:02.598Z,20.02
2022-12-20T15:09:30.072Z,19.58
2022-12-20T15:11:58.692Z,20.95
2022-12-20T15:14:27.415Z,19.42
2022-12-20T15:16:54.442Z,20.02
2022-12-20T15:19:21.752Z,19.20
2022-12-20T15:21:48.785Z,19.30
2022-12-20T15:24:22.008Z,19.10
2022-12-20T15:26:50.088Z,20.75
2022-12-20T15:29:25.385Z,20.40
2022-12-20T15:32:01.352Z,20.98
2022-12-20T15:34:39.168Z,19.95
2022-12-20T15:37:06.439Z,20.95
2022-12-20T15:39:34.512Z,20.77
2022-12-20T15:42:04.843Z,19.52
2022-12-20T15:44:33.997Z,21.27
2022-12-20T15:47:01.251Z,19.58
2022-12-20T15:49:31.000Z,20.00
2022-12-20T15:51:58.619Z,21.60
2022-12-20T15:54:30.055Z,20.70
2022-12-20T15:57:15.805Z,20.70
2022-12-20T16:00:01.683Z,21.05
2022-12-20T16:02:38.619Z,19.70
2022-12-20T16:05:06.576Z,20.42
2022-12-20T16:07:33.611Z,21.17
2022-12-20T16:10:00.900Z,20.85
2022-12-20T16:12:33.251Z,21.00
2022-12-20T16:15:01.027Z,21.45
2022-12-20T16:17:28.056Z,21.98
2022-12-20T16:19:55.638Z,20.50
2022-12-20T16:22:26.645Z,20.63
2022-12-20T16:24:54.629Z,20.92
2022-12-20T16:27:21.793Z,20.20
2022-12-20T16:29:49.233Z,20.50
2022-12-20T16:32:18.113Z,19.60
2022-12-20T16:34:45.951Z,19.75
2022-12-20T16:37:13.325Z,19.38
2022-12-20T16:39:41.885Z,19.67
2022-12-20T16:42:22.584Z,20.15
2022-12-20T16:44:54.472Z,20.52
2022-12-20T16:49:53.277Z,18.52
2022-12-20T16:52:22.678Z,21.45
2022-12-20T16:54:50.768Z,20.80
2022-12-20T16:57:17.743Z,21.95
2022-12-20T16:59:45.135Z,21.60
2022-12-20T17:02:29.532Z,21.27
2022-12-20T17:04:58.531Z,20.52
2022-12-20T17:07:25.733Z,19.13
2022-12-20T17:10:12.594Z,20.50
2022-12-20T17:12:40.720Z,19.17
2022-12-20T17:15:16.234Z,22.92
2022-12-20T17:17:43.401Z,19.92
2022-12-20T17:20:10.988Z,20.65
2022-12-20T17:25:33.511Z,19.85
2022-12-20T17:28:00.623Z,20.85
2022-12-20T17:30:29.148Z,20.77
2022-12-20T17:32:56.133Z,21.33
2022-12-20T17:35:32.048Z,19.98
2022-12-20T17:38:00.599Z,19.80
2022-12-20T17:40:28.993Z,19.25
2022-12-20T17:42:56.080Z,21.23
2022-12-20T17:45:31.058Z,19.73
2022-12-20T17:47:59.219Z,19.67
2022-12-20T17:50:27.877Z,20.55
2022-12-20T17:52:55.576Z,19.83
2022-12-20T17:55:28.094Z,20.38
2022-12-20T17:57:56.001Z,21.27
2022-12-20T18:00:26.709Z,20.02
2022-12-20T18:02:54.751Z,21.35
2022-12-20T18:05:24.446Z,19.63
2022-12-20T18:07:53.541Z,20.23
2022-12-20T18:10:22.281Z,21.33
2022-12-20T18:12:50.204Z,20.27
2022-12-20T18:15:19.217Z,21.20
2022-12-20T18:17:46.791Z,20.05
2022-12-20T18:20:14.835Z,19.98
2022-12-20T18:22:41.956Z,20.67
2022-12-20T18:25:10.335Z,21.20
2022-12-20T18:27:39.920Z,19.63
2022-12-20T18:30:08.918Z,18.40
2022-12-20T18:32:35.938Z,20.15
2022-12-20T18:35:03.422Z,20.25
2022-12-20T18:37:30.495Z,22.42
2022-12-20T18:39:58.028Z,20.98
2022-12-20T18:42:25.270Z,19.33
2022-12-20T18:44:52.607Z,18.85
2022-12-20T18:47:19.634Z,19.42
2022-12-20T18:49:46.957Z,18.83
2022-12-20T18:52:14.574Z,20.75
2022-12-20T18:54:42.433Z,21.77
2022-12-20T18:57:09.415Z,19.65
2022-12-20T18:59:36.628Z,20.98
2022-12-20T19:02:04.050Z,20.48
2022-12-20T19:04:31.466Z,18.23
2022-12-20T19:06:58.448Z,20.27
2022-12-20T19:09:25.778Z,21.50
2022-12-20T19:11:57.126Z,21.52
2022-12-20T19:14:25.787Z,20.38
2022-12-20T19:16:53.033Z,20.65
2022-12-20T19:19:20.820Z,21.25
2022-12-20T19:21:47.794Z,22.33
2022-12-20T19:24:15.114Z,22.15
2022-12-20T19:26:42.367Z,21.55
2022-12-20T19:29:09.740Z,22.95
2022-12-20T19:31:37.728Z,22.35
2022-12-20T19:34:08.515Z,21.10
2022-12-20T19:36:46.450Z,23.48
2022-12-20T19:39:23.179Z,20.08
2022-12-20T19:42:21.730Z,20.48
2022-12-20T19:44:38.233Z,21.55
2022-12-20T19:47:05.223Z,21.80
2022-12-20T19:49:32.775Z,21.90
2022-12-20T19:51:59.711Z,22.00
2022-12-20T19:54:27.149Z,20.75
2022-12-20T19:56:54.125Z,21.55
2022-12-20T19:59:21.339Z,20.85
2022-12-20T20:01:48.448Z,22.48
2022-12-20T20:04:15.934Z,20.75
2022-12-20T20:06:43.006Z,21.95
2022-12-20T20:09:10.328Z,21.30
2022-12-20T20:11:37.309Z,20.75
2022-12-20T20:14:05.633Z,21.30
2022-12-20T20:16:32.740Z,20.88
2022-12-20T20:19:00.057Z,19.65
2022-12-20T20:21:27.081Z,20.42
2022-12-20T20:23:55.334Z,21.35
2022-12-20T20:26:27.288Z,20.95
2022-12-20T20:28:55.755Z,20.92
2022-12-20T20:31:23.281Z,20.25
2022-12-20T20:33:51.031Z,21.20
2022-12-20T20:36:20.386Z,20.85
2022-12-20T20:38:48.769Z,20.23
2022-12-20T20:41:16.249Z,19.85
2022-12-20T20:43:44.051Z,20.02
2022-12-20T20:46:13.593Z,20.27
2022-12-20T20:48:41.101Z,21.38
2022-12-20T20:51:08.665Z,19.98
2022-12-20T20:53:36.362Z,20.63
2022-12-20T20:56:05.134Z,20.10
2022-12-20T20:58:33.440Z,19.33
2022-12-20T21:01:02.182Z,19.75
2022-12-20T21:03:30.813Z,21.15
2022-12-20T21:08:45.492Z,18.80
2022-12-20T21:11:12.778Z,19.88
2022-12-20T21:13:40.463Z,20.15
2022-12-20T21:16:20.442Z,20.60
2022-12-20T21:19:06.244Z,19.65
2022-12-20T21:21:33.229Z,20.35
2022-12-20T21:24:00.770Z,20.40
2022-12-20T21:26:28.180Z,21.25
2022-12-20T21:28:59.778Z,20.85
2022-12-20T21:31:27.723Z,20.40
2022-12-20T21:33:56.775Z,19.88
2022-12-20T21:36:24.627Z,20.95
2022-12-20T21:38:54.271Z,20.23
2022-12-20T21:41:26.078Z,19.38
2022-12-20T21:43:58.265Z,20.10
2022-12-20T21:46:27.832Z,21.25
2022-12-20T21:48:55.746Z,20.17
2022-12-20T21:51:24.758Z,20.85
2022-12-20T21:53:54.883Z,21.25
2022-12-20T21:56:23.165Z,20.30
2022-12-20T21:58:51.005Z,20.65
2022-12-20T22:01:21.059Z,20.35
2022-12-20T22:03:58.124Z,19.70
2022-12-20T22:06:25.788Z,20.75
2022-12-20T22:08:53.111Z,20.33
2022-12-20T22:11:20.394Z,20.38
2022-12-20T22:13:47.795Z,19.40
2022-12-20T22:16:18.031Z,20.80
2022-12-20T22:18:49.876Z,21.77
2022-12-20T22:21:18.425Z,20.15
2022-12-20T22:23:45.726Z,20.83
2022-12-20T22:26:15.564Z,19.52
2022-12-20T22:28:51.043Z,20.98
2022-12-20T22:31:18.577Z,20.38
2022-12-20T22:33:46.345Z,20.83
2022-12-20T22:36:15.225Z,20.73
2022-12-20T22:38:43.466Z,19.48
2022-12-20T22:41:12.075Z,20.90
2022-12-20T22:43:41.149Z,20.58
2022-12-20T22:46:31.149Z,19.95
2022-12-20T22:48:59.328Z,20.27
2022-12-20T22:51:27.880Z,20.52
2022-12-20T22:54:00.736Z,20.10
2022-12-20T22:56:28.334Z,20.30
2022-12-20T22:58:56.069Z,20.67
2022-12-20T23:01:23.902Z,22.60
2022-12-20T23:03:51.457Z,20.50
2022-12-20T23:06:21.135Z,20.85
2022-12-20T23:08:48.632Z,21.45
2022-12-20T23:11:36.121Z,21.48
2022-12-20T23:14:23.434Z,21.52
2022-12-20T23:16:51.283Z,21.55
2022-12-20T23:19:19.026Z,21.67
2022-12-20T23:22:04.874Z,21.77
2022-12-20T23:24:32.268Z,22.98
2022-12-20T23:26:59.316Z,22.42
2022-12-20T23:29:26.704Z,20.30
2022-12-20T23:31:53.884Z,19.95
2022-12-20T23:34:21.503Z,20.33
2022-12-20T23:36:48.514Z,21.98
2022-12-20T23:39:15.892Z,22.83
2022-12-20T23:41:42.909Z,21.20
2022-12-20T23:44:10.266Z,23.40
2022-12-20T23:46:38.389Z,21.63
2022-12-20T23:49:06.210Z,21.60
2022-12-20T23:51:34.705Z,23.20
2022-12-20T23:54:02.173Z,21.70
2022-12-20T23:56:29.118Z,21.92
2022-12-20T23:58:57.923Z,21.98
